createdAt,value
2017-03-04T00:01:59.038Z,11.1
2017-03-04T00:04:22.306Z,11.05
2017-03-04T00:06:45.668Z,11.05
2017-03-04T00:09:08.923Z,11.13
2017-03-04T00:11:18.601Z,11.25
2017-03-04T00:13:41.936Z,11.15
2017-03-04T00:16:05.201Z,11.18
2017-03-04T00:18:28.462Z,11.18
2017-03-04T00:20:04.224Z,11.2
2017-03-04T00:22:27.473Z,10.94
2017-03-04T00:24:50.733Z,10.92
2017-03-04T00:27:13.999Z,11.04
2017-03-04T00:29:28.863Z,11.04
2017-03-04T00:31:52.132Z,10.95
2017-03-04T00:34:15.391Z,10.83
2017-03-04T00:36:38.652Z,10.94
2017-03-04T00:39:01.918Z,10.71
2017-03-04T00:41:25.175Z,10.61
2017-03-04T00:43:48.442Z,10.53
2017-03-04T00:46:11.702Z,10.34
2017-03-04T00:48:34.964Z,10.57
2017-03-04T00:50:58.230Z,10.42
2017-03-04T00:52:59.351Z,10.49
2017-03-04T00:55:22.637Z,10.48
2017-03-04T00:57:45.901Z,10.41
2017-03-04T01:00:09.158Z,10.41
2017-03-04T01:02:32.422Z,10.25
2017-03-04T01:04:42.089Z,10.33
2017-03-04T01:06:57.034Z,10
2017-03-04T01:09:12.824Z,9.95
2017-03-04T01:11:35.160Z,10
2017-03-04T01:13:58.410Z,10.02
2017-03-04T01:15:51.158Z,10.25
2017-03-04T01:18:14.434Z,10.07
2017-03-04T01:20:37.697Z,10.02
2017-03-04T01:23:00.960Z,10.02
2017-03-04T01:25:24.218Z,10.02
2017-03-04T01:27:25.344Z,10.1
2017-03-04T01:29:48.651Z,9.92
2017-03-04T01:32:11.787Z,9.95
2017-03-04T01:34:04.504Z,9.92
2017-03-04T01:36:27.797Z,9.87
2017-03-04T01:38:51.059Z,9.67
2017-03-04T01:41:14.321Z,9.82
2017-03-04T01:43:23.928Z,9.77
2017-03-04T01:45:47.228Z,9.81
2017-03-04T01:48:10.388Z,9.69
2017-03-04T01:50:33.649Z,9.74
2017-03-04T01:52:56.911Z,9.74
2017-03-04T01:55:20.175Z,9.63
2017-03-04T01:57:35.039Z,9.82
2017-03-04T01:59:58.305Z,9.64
2017-03-04T02:02:07.892Z,9.51
2017-03-04T02:04:31.106Z,9.44
2017-03-04T02:06:54.370Z,9.56
2017-03-04T02:09:03.965Z,9.51
2017-03-04T02:11:05.147Z,9.7
2017-03-04T02:13:28.314Z,9.63
2017-03-04T02:15:51.578Z,9.66
2017-03-04T02:18:06.444Z,9.74
2017-03-04T02:20:29.703Z,9.72
2017-03-04T02:22:52.866Z,9.74
2017-03-04T02:25:16.025Z,9.69
2017-03-04T02:27:17.112Z,9.64
2017-03-04T02:29:40.330Z,9.72
2017-03-04T02:31:55.193Z,9.84
2017-03-04T02:34:10.061Z,9.85
2017-03-04T02:36:33.325Z,9.74
2017-03-04T02:38:56.586Z,9.82
2017-03-04T02:40:32.332Z,9.7
2017-03-04T02:42:47.199Z,9.76
2017-03-04T02:45:10.361Z,9.58
2017-03-04T02:47:25.225Z,9.64
2017-03-04T02:49:39.990Z,9.62
2017-03-04T02:51:15.869Z,9.64
2017-03-04T02:53:39.101Z,9.56
2017-03-04T02:55:53.863Z,9.49
2017-03-04T02:58:17.024Z,9.56
2017-03-04T03:00:40.183Z,9.52
2017-03-04T03:03:03.345Z,9.39
2017-03-04T03:05:27.530Z,9.31
2017-03-04T03:07:42.296Z,9.39
2017-03-04T03:10:05.454Z,9.55
2017-03-04T03:12:28.613Z,9.22
2017-03-04T03:14:51.776Z,8.95
2017-03-04T03:17:14.936Z,8.87
2017-03-04T03:19:38.094Z,8.95
2017-03-04T03:22:01.256Z,8.92
2017-03-04T03:24:24.414Z,8.96
2017-03-04T03:26:47.574Z,9.11
2017-03-04T03:28:57.148Z,8.99
2017-03-04T03:31:20.378Z,8.68
2017-03-04T03:33:43.536Z,8.71
2017-03-04T03:36:06.699Z,8.84
2017-03-04T03:38:16.269Z,8.95
2017-03-04T03:40:31.106Z,8.92
2017-03-04T03:42:54.264Z,8.64
2017-03-04T03:45:17.426Z,8.78
2017-03-04T03:47:40.586Z,8.9
2017-03-04T03:50:03.746Z,8.96
2017-03-04T03:52:26.904Z,8.93
2017-03-04T03:54:02.648Z,8.99
2017-03-04T03:56:25.919Z,8.93
2017-03-04T03:58:49.081Z,8.99
2017-03-04T04:01:03.848Z,8.99
2017-03-04T04:03:26.999Z,8.89
2017-03-04T04:05:41.772Z,9.12
2017-03-04T04:08:04.918Z,8.92
2017-03-04T04:10:28.086Z,9.08
2017-03-04T04:12:51.249Z,8.97
2017-03-04T04:15:00.817Z,9
2017-03-04T04:17:24.049Z,8.77
2017-03-04T04:19:47.205Z,8.89
2017-03-04T04:21:56.754Z,8.84
2017-03-04T04:24:19.908Z,8.81
2017-03-04T04:26:34.672Z,8.75
2017-03-04T04:28:57.828Z,8.84
2017-03-04T04:31:20.989Z,8.78
2017-03-04T04:33:35.754Z,8.81
2017-03-04T04:35:58.916Z,8.84
2017-03-04T04:38:22.076Z,8.69
2017-03-04T04:40:45.232Z,8.84
2017-03-04T04:42:59.997Z,8.68
2017-03-04T04:45:23.159Z,8.6
2017-03-04T04:47:46.317Z,8.5
2017-03-04T04:50:09.478Z,8.49
2017-03-04T04:52:32.645Z,8.26
2017-03-04T04:54:55.799Z,7.58
2017-03-04T04:57:18.964Z,7.62
2017-03-04T04:59:42.043Z,7.74
2017-03-04T05:01:52.071Z,7.84
2017-03-04T05:04:15.229Z,7.99
2017-03-04T05:06:38.387Z,7.88
2017-03-04T05:08:53.152Z,7.93
2017-03-04T05:11:07.917Z,7.9
2017-03-04T05:13:22.576Z,7.64
2017-03-04T05:15:45.636Z,7.66
2017-03-04T05:18:08.692Z,7.19
2017-03-04T05:20:31.751Z,7.04
2017-03-04T05:22:54.815Z,7.14
2017-03-04T05:25:17.868Z,7.28
2017-03-04T05:27:11.149Z,7.28
2017-03-04T05:29:34.285Z,7.15
2017-03-04T05:31:57.342Z,7.31
2017-03-04T05:34:20.402Z,7.31
2017-03-04T05:36:43.460Z,7.32
2017-03-04T05:38:44.527Z,7.39
2017-03-04T05:40:45.673Z,7.31
2017-03-04T05:43:00.405Z,7.39
2017-03-04T05:45:23.465Z,7.55
2017-03-04T05:47:46.420Z,7.58
2017-03-04T05:50:09.380Z,7.56
2017-03-04T05:52:32.436Z,7.5
2017-03-04T05:54:55.492Z,7.33
2017-03-04T05:57:18.652Z,7.15
2017-03-04T05:59:41.711Z,7.15
2017-03-04T06:01:56.370Z,7.39
2017-03-04T06:04:19.428Z,7.5
2017-03-04T06:06:42.484Z,7.8
2017-03-04T06:09:05.544Z,7.83
2017-03-04T06:11:28.602Z,7.8
2017-03-04T06:13:51.660Z,7.7
2017-03-04T06:15:52.732Z,7.36
2017-03-04T06:18:15.860Z,7.41
2017-03-04T06:20:30.521Z,7.41
2017-03-04T06:22:53.577Z,7.28
2017-03-04T06:25:16.636Z,7.53
2017-03-04T06:26:52.924Z,7.59
2017-03-04T06:28:53.982Z,7.84
2017-03-04T06:31:17.202Z,8.13
2017-03-04T06:33:40.360Z,8.66
2017-03-04T06:35:55.123Z,9.56
2017-03-04T06:38:18.386Z,10.75
2017-03-04T06:40:28.037Z,13.49
2017-03-04T06:42:51.499Z,15.19
2017-03-04T06:45:14.962Z,16.82
2017-03-04T06:47:38.435Z,18.27
2017-03-04T06:50:02.005Z,17.34
2017-03-04T06:52:25.571Z,20.36
2017-03-04T06:54:49.244Z,20.34
2017-03-04T06:57:13.017Z,21.62
2017-03-04T06:59:36.899Z,23.28
2017-03-04T07:02:00.877Z,22.46
2017-03-04T07:04:24.851Z,23.34
2017-03-04T07:06:48.936Z,23.33
2017-03-04T07:09:04.621Z,23.86
2017-03-04T07:11:28.808Z,25.15
2017-03-04T07:13:53.091Z,25.33
2017-03-04T07:16:17.482Z,25.95
2017-03-04T07:18:18.914Z,22.01
2017-03-04T07:20:43.424Z,20.92
2017-03-04T07:23:07.815Z,19.77
2017-03-04T07:25:32.102Z,17.86
2017-03-04T07:27:47.890Z,18.53
2017-03-04T07:30:12.070Z,17.27
2017-03-04T07:32:36.151Z,16.41
2017-03-04T07:35:00.130Z,15.25
2017-03-04T07:37:01.504Z,15.84
2017-03-04T07:39:25.357Z,15.99
2017-03-04T07:41:49.234Z,16.87
2017-03-04T07:44:13.109Z,19.12
2017-03-04T07:46:37.092Z,20.44
2017-03-04T07:49:01.178Z,22.28
2017-03-04T07:51:25.357Z,22.68
2017-03-04T07:53:49.641Z,23.4
2017-03-04T07:56:14.035Z,24.5
2017-03-04T07:57:49.909Z,26.18
2017-03-04T08:00:14.482Z,28.04
2017-03-04T08:02:39.071Z,27.82
2017-03-04T08:05:03.765Z,29.92
2017-03-04T08:07:28.572Z,31.04
2017-03-04T08:09:53.467Z,31.93
2017-03-04T08:12:18.469Z,30.17
2017-03-04T08:14:35.075Z,30.59
2017-03-04T08:16:51.681Z,30.11
2017-03-04T08:19:16.891Z,29.77
2017-03-04T08:21:42.098Z,32.19
2017-03-04T08:23:58.920Z,34.28
2017-03-04T08:26:09.200Z,30.99
2017-03-04T08:28:34.477Z,28.34
2017-03-04T08:30:59.586Z,24.81
2017-03-04T08:33:24.486Z,23.56
2017-03-04T08:35:49.192Z,22.81
2017-03-04T08:38:05.378Z,24.18
2017-03-04T08:40:29.869Z,23.07
2017-03-04T08:42:05.717Z,22.38
2017-03-04T08:44:30.210Z,18.82
2017-03-04T08:46:54.600Z,17.98
2017-03-04T08:49:18.991Z,17.95
2017-03-04T08:51:43.279Z,17.86
2017-03-04T08:54:07.564Z,16.44
2017-03-04T08:56:31.747Z,16.18
2017-03-04T08:58:47.433Z,14.94
2017-03-04T09:01:03.014Z,14.82
2017-03-04T09:03:12.862Z,14.87
2017-03-04T09:05:36.739Z,13.98
2017-03-04T09:08:00.632Z,14.08
2017-03-04T09:10:24.392Z,13.86
2017-03-04T09:12:48.167Z,14.48
2017-03-04T09:14:57.910Z,14.22
2017-03-04T09:17:21.587Z,14.61
2017-03-04T09:19:45.254Z,14.71
2017-03-04T09:22:00.427Z,14.58
2017-03-04T09:24:24.103Z,14.99
2017-03-04T09:26:47.672Z,15
2017-03-04T09:29:11.342Z,16.17
2017-03-04T09:31:12.564Z,16.49
2017-03-04T09:33:36.260Z,17.19
2017-03-04T09:35:46.458Z,16.95
2017-03-04T09:38:10.281Z,17.87
2017-03-04T09:40:20.077Z,17.5
2017-03-04T09:42:43.915Z,17.31
2017-03-04T09:44:59.294Z,16.22
2017-03-04T09:47:14.672Z,16.39
2017-03-04T09:49:30.048Z,16.62
2017-03-04T09:51:53.824Z,16.92
